Lerna, Illinois
Current Conditions -  °F | °C
As of 12:30 PM on Sunday 21 Dec 2014 (Local Time) from KMTO Reporting Station
Few Clouds Few Clouds  
Wind Chill:   Ceiling: Unl
Heat Index:   Visibility: 10mi
Dew Point: -2°   Wind: 9mph
Humidity: 67%   Direction: 130°SE
Pressure: 30.16"   Gusts: NA
Location:  39.42°N, 88.29°W
Report Text: KMTO 211830Z AUTO 13008KT 10SM FEW031 04/M02 A3016 RMK AO2 T00391017
Loading
Personal Weather Stations






























Interactive Weather Map New forecast layout! Learn more

10-Day Weather Forecast

Advertisements
Track Severe Weather on mobile